sensor_id;sensor_type;location;lat;lon;timestamp;P1;durP1;ratioP1;P2;durP2;ratioP2
18076;SDS011;9165;45.714;11.362;2022-11-21T00:01:38;10.00;;;7.07;;
18076;SDS011;9165;45.714;11.362;2022-11-21T00:04:04;10.07;;;7.47;;
18076;SDS011;9165;45.714;11.362;2022-11-21T00:06:31;12.27;;;7.43;;
18076;SDS011;9165;45.714;11.362;2022-11-21T00:08:58;12.37;;;6.97;;
18076;SDS011;9165;45.714;11.362;2022-11-21T00:11:24;10.67;;;6.63;;
18076;SDS011;9165;45.714;11.362;2022-11-21T00:13:51;10.87;;;6.83;;
18076;SDS011;9165;45.714;11.362;2022-11-21T00:16:19;11.13;;;7.63;;
18076;SDS011;9165;45.714;11.362;2022-11-21T00:18:45;15.80;;;7.57;;
18076;SDS011;9165;45.714;11.362;2022-11-21T00:21:13;14.23;;;8.47;;
18076;SDS011;9165;45.714;11.362;2022-11-21T00:23:40;12.63;;;7.07;;
18076;SDS011;9165;45.714;11.362;2022-11-21T00:26:06;12.43;;;7.20;;
18076;SDS011;9165;45.714;11.362;2022-11-21T00:28:33;11.97;;;7.17;;
18076;SDS011;9165;45.714;11.362;2022-11-21T00:31:00;12.87;;;7.40;;
18076;SDS011;9165;45.714;11.362;2022-11-21T00:33:28;10.93;;;7.97;;
18076;SDS011;9165;45.714;11.362;2022-11-21T00:35:54;13.40;;;7.90;;
18076;SDS011;9165;45.714;11.362;2022-11-21T00:38:21;12.77;;;7.90;;
18076;SDS011;9165;45.714;11.362;2022-11-21T00:40:48;12.87;;;8.47;;
18076;SDS011;9165;45.714;11.362;2022-11-21T00:43:15;14.00;;;8.33;;
18076;SDS011;9165;45.714;11.362;2022-11-21T00:45:41;11.07;;;7.33;;
18076;SDS011;9165;45.714;11.362;2022-11-21T00:48:08;9.53;;;7.13;;
18076;SDS011;9165;45.714;11.362;2022-11-21T00:50:35;10.97;;;7.23;;
18076;SDS011;9165;45.714;11.362;2022-11-21T00:53:02;16.53;;;7.43;;
18076;SDS011;9165;45.714;11.362;2022-11-21T00:55:29;10.47;;;7.47;;
18076;SDS011;9165;45.714;11.362;2022-11-21T00:57:55;9.77;;;7.27;;
18076;SDS011;9165;45.714;11.362;2022-11-21T01:00:22;10.07;;;6.80;;
18076;SDS011;9165;45.714;11.362;2022-11-21T01:02:48;12.40;;;8.07;;
18076;SDS011;9165;45.714;11.362;2022-11-21T01:05:15;9.67;;;6.93;;
18076;SDS011;9165;45.714;11.362;2022-11-21T01:07:43;14.97;;;7.87;;
18076;SDS011;9165;45.714;11.362;2022-11-21T01:10:09;11.17;;;7.67;;
18076;SDS011;9165;45.714;11.362;2022-11-21T01:12:36;11.73;;;7.83;;
18076;SDS011;9165;45.714;11.362;2022-11-21T01:15:03;12.47;;;7.37;;
18076;SDS011;9165;45.714;11.362;2022-11-21T01:17:30;11.77;;;6.97;;
18076;SDS011;9165;45.714;11.362;2022-11-21T01:19:57;9.60;;;7.00;;
18076;SDS011;9165;45.714;11.362;2022-11-21T01:22:23;11.40;;;7.60;;
18076;SDS011;9165;45.714;11.362;2022-11-21T01:24:51;12.30;;;7.20;;
18076;SDS011;9165;45.714;11.362;2022-11-21T01:27:18;8.57;;;7.33;;
18076;SDS011;9165;45.714;11.362;2022-11-21T01:29:44;10.67;;;7.00;;
18076;SDS011;9165;45.714;11.362;2022-11-21T01:32:11;9.23;;;6.80;;
18076;SDS011;9165;45.714;11.362;2022-11-21T01:34:37;11.23;;;7.97;;
18076;SDS011;9165;45.714;11.362;2022-11-21T01:37:04;17.43;;;8.03;;
18076;SDS011;9165;45.714;11.362;2022-11-21T01:39:30;10.93;;;7.47;;
18076;SDS011;9165;45.714;11.362;2022-11-21T01:41:58;9.83;;;7.60;;
18076;SDS011;9165;45.714;11.362;2022-11-21T01:44:25;15.23;;;8.37;;
18076;SDS011;9165;45.714;11.362;2022-11-21T01:46:52;11.67;;;7.20;;
18076;SDS011;9165;45.714;11.362;2022-11-21T01:49:19;12.60;;;8.30;;
18076;SDS011;9165;45.714;11.362;2022-11-21T01:51:48;12.73;;;7.20;;
18076;SDS011;9165;45.714;11.362;2022-11-21T01:54:16;11.70;;;7.17;;
18076;SDS011;9165;45.714;11.362;2022-11-21T01:56:44;11.83;;;7.33;;
18076;SDS011;9165;45.714;11.362;2022-11-21T01:59:14;10.43;;;7.20;;
18076;SDS011;9165;45.714;11.362;2022-11-21T02:01:43;9.70;;;7.10;;
18076;SDS011;9165;45.714;11.362;2022-11-21T02:04:10;14.03;;;7.07;;
18076;SDS011;9165;45.714;11.362;2022-11-21T02:06:36;12.83;;;7.90;;
18076;SDS011;9165;45.714;11.362;2022-11-21T02:09:03;12.23;;;7.97;;
18076;SDS011;9165;45.714;11.362;2022-11-21T02:11:31;9.13;;;7.10;;
18076;SDS011;9165;45.714;11.362;2022-11-21T02:14:00;11.03;;;7.93;;
18076;SDS011;9165;45.714;11.362;2022-11-21T02:16:28;10.50;;;6.97;;
18076;SDS011;9165;45.714;11.362;2022-11-21T02:18:55;10.07;;;7.00;;
18076;SDS011;9165;45.714;11.362;2022-11-21T02:21:24;12.57;;;7.60;;
18076;SDS011;9165;45.714;11.362;2022-11-21T02:23:56;11.77;;;7.57;;
18076;SDS011;9165;45.714;11.362;2022-11-21T02:26:27;10.67;;;7.17;;
18076;SDS011;9165;45.714;11.362;2022-11-21T02:28:54;10.20;;;7.40;;
18076;SDS011;9165;45.714;11.362;2022-11-21T02:31:20;11.10;;;7.73;;
18076;SDS011;9165;45.714;11.362;2022-11-21T02:33:47;11.13;;;7.23;;
18076;SDS011;9165;45.714;11.362;2022-11-21T02:36:26;10.77;;;6.87;;
18076;SDS011;9165;45.714;11.362;2022-11-21T02:38:56;11.40;;;7.27;;
18076;SDS011;9165;45.714;11.362;2022-11-21T02:41:22;16.80;;;7.70;;
18076;SDS011;9165;45.714;11.362;2022-11-21T02:43:54;12.00;;;8.03;;
18076;SDS011;9165;45.714;11.362;2022-11-21T02:46:22;10.70;;;7.30;;
18076;SDS011;9165;45.714;11.362;2022-11-21T02:48:49;11.10;;;8.07;;
18076;SDS011;9165;45.714;11.362;2022-11-21T02:51:15;11.50;;;7.33;;
18076;SDS011;9165;45.714;11.362;2022-11-21T02:53:42;10.50;;;7.40;;
18076;SDS011;9165;45.714;11.362;2022-11-21T02:56:08;10.93;;;7.33;;
18076;SDS011;9165;45.714;11.362;2022-11-21T02:58:35;10.97;;;7.47;;
18076;SDS011;9165;45.714;11.362;2022-11-21T03:01:03;10.40;;;7.47;;
18076;SDS011;9165;45.714;11.362;2022-11-21T03:03:29;10.13;;;7.43;;
18076;SDS011;9165;45.714;11.362;2022-11-21T03:05:56;9.53;;;7.10;;
18076;SDS011;9165;45.714;11.362;2022-11-21T03:08:22;12.23;;;7.70;;
18076;SDS011;9165;45.714;11.362;2022-11-21T03:10:49;10.90;;;7.47;;
18076;SDS011;9165;45.714;11.362;2022-11-21T03:13:15;8.70;;;7.03;;
18076;SDS011;9165;45.714;11.362;2022-11-21T03:15:42;9.40;;;5.87;;
18076;SDS011;9165;45.714;11.362;2022-11-21T03:18:10;11.83;;;7.40;;
18076;SDS011;9165;45.714;11.362;2022-11-21T03:20:36;10.50;;;7.30;;
18076;SDS011;9165;45.714;11.362;2022-11-21T03:23:03;9.73;;;7.17;;
18076;SDS011;9165;45.714;11.362;2022-11-21T03:25:29;21.20;;;7.37;;
18076;SDS011;9165;45.714;11.362;2022-11-21T03:27:56;10.90;;;7.60;;
18076;SDS011;9165;45.714;11.362;2022-11-21T03:30:23;12.23;;;7.17;;
18076;SDS011;9165;45.714;11.362;2022-11-21T03:32:50;14.43;;;7.67;;
18076;SDS011;9165;45.714;11.362;2022-11-21T03:35:21;13.83;;;7.20;;
18076;SDS011;9165;45.714;11.362;2022-11-21T03:37:48;12.87;;;7.07;;
18076;SDS011;9165;45.714;11.362;2022-11-21T03:40:14;11.27;;;6.63;;
18076;SDS011;9165;45.714;11.362;2022-11-21T03:42:41;8.70;;;6.90;;
18076;SDS011;9165;45.714;11.362;2022-11-21T03:45:08;9.50;;;6.63;;
18076;SDS011;9165;45.714;11.362;2022-11-21T03:47:35;9.80;;;6.67;;
18076;SDS011;9165;45.714;11.362;2022-11-21T03:50:01;10.07;;;7.70;;
18076;SDS011;9165;45.714;11.362;2022-11-21T03:52:29;13.80;;;8.20;;
18076;SDS011;9165;45.714;11.362;2022-11-21T03:54:56;13.37;;;7.50;;
18076;SDS011;9165;45.714;11.362;2022-11-21T03:57:22;10.20;;;6.87;;
18076;SDS011;9165;45.714;11.362;2022-11-21T03:59:49;13.80;;;8.43;;
18076;SDS011;9165;45.714;11.362;2022-11-21T04:02:15;11.70;;;7.90;;
18076;SDS011;9165;45.714;11.362;2022-11-21T04:04:42;10.63;;;8.20;;
18076;SDS011;9165;45.714;11.362;2022-11-21T04:07:08;14.50;;;7.37;;
18076;SDS011;9165;45.714;11.362;2022-11-21T04:09:36;12.50;;;7.93;;
18076;SDS011;9165;45.714;11.362;2022-11-21T04:12:03;12.77;;;8.00;;
18076;SDS011;9165;45.714;11.362;2022-11-21T04:14:29;14.97;;;8.50;;
18076;SDS011;9165;45.714;11.362;2022-11-21T04:16:56;13.57;;;8.37;;
18076;SDS011;9165;45.714;11.362;2022-11-21T04:19:22;10.70;;;8.00;;
18076;SDS011;9165;45.714;11.362;2022-11-21T04:21:49;14.37;;;7.90;;
18076;SDS011;9165;45.714;11.362;2022-11-21T04:24:17;15.53;;;8.10;;
18076;SDS011;9165;45.714;11.362;2022-11-21T04:26:44;15.27;;;9.37;;
18076;SDS011;9165;45.714;11.362;2022-11-21T04:29:11;11.83;;;8.17;;
18076;SDS011;9165;45.714;11.362;2022-11-21T04:31:38;12.87;;;8.97;;
18076;SDS011;9165;45.714;11.362;2022-11-21T04:34:04;10.23;;;8.33;;
18076;SDS011;9165;45.714;11.362;2022-11-21T04:36:31;13.43;;;8.83;;
18076;SDS011;9165;45.714;11.362;2022-11-21T04:38:57;13.67;;;8.57;;
18076;SDS011;9165;45.714;11.362;2022-11-21T04:41:24;16.37;;;8.67;;
18076;SDS011;9165;45.714;11.362;2022-11-21T04:43:52;13.40;;;8.90;;
18076;SDS011;9165;45.714;11.362;2022-11-21T04:46:18;13.40;;;9.13;;
18076;SDS011;9165;45.714;11.362;2022-11-21T04:48:45;14.93;;;9.23;;
18076;SDS011;9165;45.714;11.362;2022-11-21T04:51:11;13.77;;;9.03;;
18076;SDS011;9165;45.714;11.362;2022-11-21T04:53:38;15.63;;;9.43;;
18076;SDS011;9165;45.714;11.362;2022-11-21T04:56:05;14.83;;;8.63;;
18076;SDS011;9165;45.714;11.362;2022-11-21T04:58:31;13.37;;;9.13;;
18076;SDS011;9165;45.714;11.362;2022-11-21T05:01:05;16.37;;;9.60;;
18076;SDS011;9165;45.714;11.362;2022-11-21T05:03:32;15.23;;;9.40;;
18076;SDS011;9165;45.714;11.362;2022-11-21T05:05:58;15.20;;;9.17;;
18076;SDS011;9165;45.714;11.362;2022-11-21T05:08:25;13.00;;;9.10;;
18076;SDS011;9165;45.714;11.362;2022-11-21T05:10:51;15.57;;;9.63;;
18076;SDS011;9165;45.714;11.362;2022-11-21T05:13:35;15.27;;;10.00;;
18076;SDS011;9165;45.714;11.362;2022-11-21T05:16:02;15.33;;;9.13;;
18076;SDS011;9165;45.714;11.362;2022-11-21T05:18:30;14.77;;;9.40;;
18076;SDS011;9165;45.714;11.362;2022-11-21T05:20:56;13.50;;;8.67;;
18076;SDS011;9165;45.714;11.362;2022-11-21T05:23:23;14.10;;;9.40;;
18076;SDS011;9165;45.714;11.362;2022-11-21T05:25:50;15.97;;;10.10;;
18076;SDS011;9165;45.714;11.362;2022-11-21T05:28:16;17.67;;;10.63;;
18076;SDS011;9165;45.714;11.362;2022-11-21T05:30:43;13.40;;;8.97;;
18076;SDS011;9165;45.714;11.362;2022-11-21T05:33:09;19.57;;;9.90;;
18076;SDS011;9165;45.714;11.362;2022-11-21T05:35:37;16.43;;;9.63;;
18076;SDS011;9165;45.714;11.362;2022-11-21T05:38:04;12.90;;;9.60;;
18076;SDS011;9165;45.714;11.362;2022-11-21T05:40:31;16.93;;;10.40;;
18076;SDS011;9165;45.714;11.362;2022-11-21T05:42:57;15.17;;;9.97;;
18076;SDS011;9165;45.714;11.362;2022-11-21T05:45:41;14.10;;;10.70;;
18076;SDS011;9165;45.714;11.362;2022-11-21T05:48:07;15.83;;;11.93;;
18076;SDS011;9165;45.714;11.362;2022-11-21T05:50:34;19.27;;;12.83;;
18076;SDS011;9165;45.714;11.362;2022-11-21T05:53:02;17.10;;;12.50;;
18076;SDS011;9165;45.714;11.362;2022-11-21T05:55:29;17.00;;;12.30;;
18076;SDS011;9165;45.714;11.362;2022-11-21T05:57:57;18.60;;;12.43;;
18076;SDS011;9165;45.714;11.362;2022-11-21T06:00:23;15.50;;;12.27;;
18076;SDS011;9165;45.714;11.362;2022-11-21T06:02:50;19.07;;;12.60;;
18076;SDS011;9165;45.714;11.362;2022-11-21T06:05:33;19.33;;;12.73;;
18076;SDS011;9165;45.714;11.362;2022-11-21T06:08:00;17.00;;;12.10;;
18076;SDS011;9165;45.714;11.362;2022-11-21T06:10:28;19.63;;;12.30;;
18076;SDS011;9165;45.714;11.362;2022-11-21T06:12:56;19.40;;;11.37;;
18076;SDS011;9165;45.714;11.362;2022-11-21T06:15:24;19.03;;;11.33;;
18076;SDS011;9165;45.714;11.362;2022-11-21T06:17:50;18.73;;;11.30;;
18076;SDS011;9165;45.714;11.362;2022-11-21T06:20:17;17.90;;;11.53;;
18076;SDS011;9165;45.714;11.362;2022-11-21T06:22:43;16.30;;;10.70;;
18076;SDS011;9165;45.714;11.362;2022-11-21T06:25:10;13.53;;;8.97;;
18076;SDS011;9165;45.714;11.362;2022-11-21T06:27:38;16.33;;;10.67;;
18076;SDS011;9165;45.714;11.362;2022-11-21T06:30:05;19.10;;;11.67;;
18076;SDS011;9165;45.714;11.362;2022-11-21T06:32:35;19.63;;;11.47;;
18076;SDS011;9165;45.714;11.362;2022-11-21T06:35:01;17.53;;;11.80;;
18076;SDS011;9165;45.714;11.362;2022-11-21T06:37:28;19.57;;;11.23;;
18076;SDS011;9165;45.714;11.362;2022-11-21T06:39:55;18.03;;;10.63;;
18076;SDS011;9165;45.714;11.362;2022-11-21T06:42:22;20.23;;;10.60;;
18076;SDS011;9165;45.714;11.362;2022-11-21T06:44:50;17.63;;;11.87;;
18076;SDS011;9165;45.714;11.362;2022-11-21T06:47:17;21.40;;;11.87;;
18076;SDS011;9165;45.714;11.362;2022-11-21T06:49:43;16.27;;;10.87;;
18076;SDS011;9165;45.714;11.362;2022-11-21T06:52:10;22.53;;;13.43;;
18076;SDS011;9165;45.714;11.362;2022-11-21T06:54:36;18.53;;;11.03;;
18076;SDS011;9165;45.714;11.362;2022-11-21T06:57:03;17.40;;;11.40;;
18076;SDS011;9165;45.714;11.362;2022-11-21T06:59:29;18.23;;;11.53;;
18076;SDS011;9165;45.714;11.362;2022-11-21T07:01:57;19.27;;;11.50;;
18076;SDS011;9165;45.714;11.362;2022-11-21T07:04:24;20.10;;;12.40;;
18076;SDS011;9165;45.714;11.362;2022-11-21T07:06:50;22.23;;;12.30;;
18076;SDS011;9165;45.714;11.362;2022-11-21T07:09:17;17.23;;;11.43;;
18076;SDS011;9165;45.714;11.362;2022-11-21T07:11:43;18.70;;;11.83;;
18076;SDS011;9165;45.714;11.362;2022-11-21T07:14:10;23.43;;;11.37;;
18076;SDS011;9165;45.714;11.362;2022-11-21T07:16:35;16.40;;;10.70;;
18076;SDS011;9165;45.714;11.362;2022-11-21T07:19:03;17.97;;;11.83;;
18076;SDS011;9165;45.714;11.362;2022-11-21T07:21:30;19.23;;;11.40;;
18076;SDS011;9165;45.714;11.362;2022-11-21T07:23:57;18.83;;;11.90;;
18076;SDS011;9165;45.714;11.362;2022-11-21T07:26:23;20.63;;;11.60;;
18076;SDS011;9165;45.714;11.362;2022-11-21T07:28:50;18.40;;;11.63;;
18076;SDS011;9165;45.714;11.362;2022-11-21T07:31:16;21.80;;;10.67;;
18076;SDS011;9165;45.714;11.362;2022-11-21T07:33:43;20.60;;;12.33;;
18076;SDS011;9165;45.714;11.362;2022-11-21T07:36:12;21.07;;;13.20;;
18076;SDS011;9165;45.714;11.362;2022-11-21T07:38:38;28.00;;;14.33;;
18076;SDS011;9165;45.714;11.362;2022-11-21T07:41:05;20.83;;;13.17;;
18076;SDS011;9165;45.714;11.362;2022-11-21T07:43:32;19.83;;;12.03;;
18076;SDS011;9165;45.714;11.362;2022-11-21T07:45:58;24.43;;;13.43;;
18076;SDS011;9165;45.714;11.362;2022-11-21T07:48:25;20.07;;;12.67;;
18076;SDS011;9165;45.714;11.362;2022-11-21T07:50:51;19.63;;;12.30;;
18076;SDS011;9165;45.714;11.362;2022-11-21T07:53:19;21.87;;;13.00;;
18076;SDS011;9165;45.714;11.362;2022-11-21T07:55:46;18.33;;;12.10;;
18076;SDS011;9165;45.714;11.362;2022-11-21T07:58:13;22.50;;;12.53;;
18076;SDS011;9165;45.714;11.362;2022-11-21T08:00:41;18.83;;;11.13;;
18076;SDS011;9165;45.714;11.362;2022-11-21T08:03:07;18.23;;;11.83;;
18076;SDS011;9165;45.714;11.362;2022-11-21T08:05:36;18.23;;;11.37;;
18076;SDS011;9165;45.714;11.362;2022-11-21T08:08:03;20.07;;;11.83;;
18076;SDS011;9165;45.714;11.362;2022-11-21T08:10:31;19.60;;;11.77;;
18076;SDS011;9165;45.714;11.362;2022-11-21T08:12:57;19.13;;;11.50;;
18076;SDS011;9165;45.714;11.362;2022-11-21T08:15:24;21.50;;;12.87;;
18076;SDS011;9165;45.714;11.362;2022-11-21T08:17:50;20.63;;;11.97;;
18076;SDS011;9165;45.714;11.362;2022-11-21T08:20:17;18.70;;;11.53;;
18076;SDS011;9165;45.714;11.362;2022-11-21T08:22:43;20.73;;;11.80;;
18076;SDS011;9165;45.714;11.362;2022-11-21T08:25:10;19.73;;;12.23;;
18076;SDS011;9165;45.714;11.362;2022-11-21T08:27:38;21.00;;;12.43;;
18076;SDS011;9165;45.714;11.362;2022-11-21T08:30:05;19.20;;;12.47;;
18076;SDS011;9165;45.714;11.362;2022-11-21T08:32:32;18.00;;;12.03;;
18076;SDS011;9165;45.714;11.362;2022-11-21T08:34:58;19.87;;;12.50;;
18076;SDS011;9165;45.714;11.362;2022-11-21T08:37:25;21.20;;;12.37;;
18076;SDS011;9165;45.714;11.362;2022-11-21T08:39:52;19.77;;;12.90;;
18076;SDS011;9165;45.714;11.362;2022-11-21T08:42:18;16.63;;;11.23;;
18076;SDS011;9165;45.714;11.362;2022-11-21T08:44:46;18.57;;;11.13;;
18076;SDS011;9165;45.714;11.362;2022-11-21T08:47:13;15.10;;;10.37;;
18076;SDS011;9165;45.714;11.362;2022-11-21T08:49:40;17.73;;;11.03;;
18076;SDS011;9165;45.714;11.362;2022-11-21T08:52:06;14.43;;;9.67;;
18076;SDS011;9165;45.714;11.362;2022-11-21T08:54:33;15.13;;;9.67;;
18076;SDS011;9165;45.714;11.362;2022-11-21T08:56:59;15.17;;;9.37;;
18076;SDS011;9165;45.714;11.362;2022-11-21T08:59:26;15.60;;;10.00;;
18076;SDS011;9165;45.714;11.362;2022-11-21T09:01:54;14.17;;;9.50;;
18076;SDS011;9165;45.714;11.362;2022-11-21T09:04:20;12.63;;;9.10;;
18076;SDS011;9165;45.714;11.362;2022-11-21T09:06:47;15.30;;;9.43;;
18076;SDS011;9165;45.714;11.362;2022-11-21T09:09:13;15.00;;;9.43;;
18076;SDS011;9165;45.714;11.362;2022-11-21T09:11:40;17.83;;;10.67;;
18076;SDS011;9165;45.714;11.362;2022-11-21T09:14:06;18.60;;;11.77;;
18076;SDS011;9165;45.714;11.362;2022-11-21T09:16:50;16.97;;;10.93;;
18076;SDS011;9165;45.714;11.362;2022-11-21T09:19:35;20.07;;;11.30;;
18076;SDS011;9165;45.714;11.362;2022-11-21T09:26:54;15.87;;;9.70;;
18076;SDS011;9165;45.714;11.362;2022-11-21T09:29:21;18.20;;;10.57;;
18076;SDS011;9165;45.714;11.362;2022-11-21T09:44:22;23.13;;;12.53;;
18076;SDS011;9165;45.714;11.362;2022-11-21T09:46:51;16.97;;;11.80;;
18076;SDS011;9165;45.714;11.362;2022-11-21T09:49:19;16.63;;;12.70;;
18076;SDS011;9165;45.714;11.362;2022-11-21T09:51:47;18.27;;;11.47;;
18076;SDS011;9165;45.714;11.362;2022-11-21T09:54:15;19.57;;;13.80;;
18076;SDS011;9165;45.714;11.362;2022-11-21T09:56:43;17.53;;;11.80;;
18076;SDS011;9165;45.714;11.362;2022-11-21T09:59:15;24.37;;;12.07;;
18076;SDS011;9165;45.714;11.362;2022-11-21T10:01:47;15.73;;;11.20;;
18076;SDS011;9165;45.714;11.362;2022-11-21T10:04:13;16.20;;;11.37;;
18076;SDS011;9165;45.714;11.362;2022-11-21T10:06:41;21.23;;;11.63;;
18076;SDS011;9165;45.714;11.362;2022-11-21T10:09:13;64.43;;;15.27;;
18076;SDS011;9165;45.714;11.362;2022-11-21T10:11:46;14.27;;;10.73;;
18076;SDS011;9165;45.714;11.362;2022-11-21T10:14:32;17.10;;;11.63;;
18076;SDS011;9165;45.714;11.362;2022-11-21T10:17:04;16.27;;;11.47;;
18076;SDS011;9165;45.714;11.362;2022-11-21T10:19:38;20.27;;;12.23;;
18076;SDS011;9165;45.714;11.362;2022-11-21T10:22:22;22.00;;;14.37;;
18076;SDS011;9165;45.714;11.362;2022-11-21T10:24:54;22.40;;;15.30;;
18076;SDS011;9165;45.714;11.362;2022-11-21T10:27:24;25.73;;;17.07;;
18076;SDS011;9165;45.714;11.362;2022-11-21T10:29:54;26.63;;;16.30;;
18076;SDS011;9165;45.714;11.362;2022-11-21T10:32:23;24.83;;;15.93;;
18076;SDS011;9165;45.714;11.362;2022-11-21T10:34:50;22.90;;;16.27;;
18076;SDS011;9165;45.714;11.362;2022-11-21T10:37:22;26.93;;;17.07;;
18076;SDS011;9165;45.714;11.362;2022-11-21T10:39:50;28.93;;;19.57;;
18076;SDS011;9165;45.714;11.362;2022-11-21T10:42:22;26.57;;;18.47;;
18076;SDS011;9165;45.714;11.362;2022-11-21T10:44:55;26.47;;;17.63;;
18076;SDS011;9165;45.714;11.362;2022-11-21T10:47:42;28.27;;;19.40;;
18076;SDS011;9165;45.714;11.362;2022-11-21T10:50:28;28.07;;;19.30;;
18076;SDS011;9165;45.714;11.362;2022-11-21T10:53:00;27.23;;;18.97;;
18076;SDS011;9165;45.714;11.362;2022-11-21T10:55:54;27.93;;;19.60;;
18076;SDS011;9165;45.714;11.362;2022-11-21T10:58:27;28.00;;;17.90;;
18076;SDS011;9165;45.714;11.362;2022-11-21T11:00:58;29.60;;;17.50;;
18076;SDS011;9165;45.714;11.362;2022-11-21T11:03:26;28.83;;;18.83;;
18076;SDS011;9165;45.714;11.362;2022-11-21T11:05:54;27.83;;;19.03;;
18076;SDS011;9165;45.714;11.362;2022-11-21T11:08:22;26.73;;;17.97;;
18076;SDS011;9165;45.714;11.362;2022-11-21T11:11:00;28.73;;;18.70;;
18076;SDS011;9165;45.714;11.362;2022-11-21T11:13:26;26.70;;;16.67;;
18076;SDS011;9165;45.714;11.362;2022-11-21T11:16:01;28.67;;;19.13;;
18076;SDS011;9165;45.714;11.362;2022-11-21T11:18:30;26.47;;;17.93;;
18076;SDS011;9165;45.714;11.362;2022-11-21T11:21:11;27.20;;;17.50;;
18076;SDS011;9165;45.714;11.362;2022-11-21T11:23:39;30.87;;;17.20;;
18076;SDS011;9165;45.714;11.362;2022-11-21T11:26:16;27.57;;;17.10;;
18076;SDS011;9165;45.714;11.362;2022-11-21T11:28:43;26.47;;;15.90;;
18076;SDS011;9165;45.714;11.362;2022-11-21T11:31:10;27.87;;;17.57;;
18076;SDS011;9165;45.714;11.362;2022-11-21T11:33:39;27.77;;;17.20;;
18076;SDS011;9165;45.714;11.362;2022-11-21T11:36:10;26.67;;;17.30;;
18076;SDS011;9165;45.714;11.362;2022-11-21T11:38:38;25.47;;;16.43;;
18076;SDS011;9165;45.714;11.362;2022-11-21T11:41:08;24.50;;;16.27;;
18076;SDS011;9165;45.714;11.362;2022-11-21T11:43:39;29.40;;;18.87;;
18076;SDS011;9165;45.714;11.362;2022-11-21T11:46:32;32.07;;;17.87;;
18076;SDS011;9165;45.714;11.362;2022-11-21T11:49:23;23.17;;;15.73;;
18076;SDS011;9165;45.714;11.362;2022-11-21T11:51:52;30.27;;;17.63;;
18076;SDS011;9165;45.714;11.362;2022-11-21T11:54:20;30.57;;;17.37;;
18076;SDS011;9165;45.714;11.362;2022-11-21T11:56:48;29.03;;;17.97;;
18076;SDS011;9165;45.714;11.362;2022-11-21T11:59:17;27.67;;;18.90;;
18076;SDS011;9165;45.714;11.362;2022-11-21T12:01:47;30.90;;;19.07;;
18076;SDS011;9165;45.714;11.362;2022-11-21T12:04:17;30.43;;;18.50;;
18076;SDS011;9165;45.714;11.362;2022-11-21T12:06:47;28.97;;;18.23;;
18076;SDS011;9165;45.714;11.362;2022-11-21T12:09:17;29.40;;;19.33;;
18076;SDS011;9165;45.714;11.362;2022-11-21T12:11:49;35.07;;;20.40;;
18076;SDS011;9165;45.714;11.362;2022-11-21T12:17:36;30.10;;;19.00;;
18076;SDS011;9165;45.714;11.362;2022-11-21T12:20:11;33.30;;;19.00;;
18076;SDS011;9165;45.714;11.362;2022-11-21T12:22:40;33.87;;;19.27;;
18076;SDS011;9165;45.714;11.362;2022-11-21T12:25:09;31.97;;;19.87;;
18076;SDS011;9165;45.714;11.362;2022-11-21T12:27:35;38.43;;;21.87;;
18076;SDS011;9165;45.714;11.362;2022-11-21T12:30:08;31.27;;;19.20;;
18076;SDS011;9165;45.714;11.362;2022-11-21T12:32:44;31.30;;;19.83;;
18076;SDS011;9165;45.714;11.362;2022-11-21T12:35:20;35.33;;;20.47;;
18076;SDS011;9165;45.714;11.362;2022-11-21T12:37:54;31.07;;;18.13;;
18076;SDS011;9165;45.714;11.362;2022-11-21T12:40:27;23.37;;;16.37;;
18076;SDS011;9165;45.714;11.362;2022-11-21T12:43:01;29.30;;;19.10;;
18076;SDS011;9165;45.714;11.362;2022-11-21T12:45:30;37.43;;;19.27;;
18076;SDS011;9165;45.714;11.362;2022-11-21T12:48:00;28.50;;;18.67;;
18076;SDS011;9165;45.714;11.362;2022-11-21T12:50:48;30.37;;;18.60;;
18076;SDS011;9165;45.714;11.362;2022-11-21T12:53:38;31.90;;;19.33;;
18076;SDS011;9165;45.714;11.362;2022-11-21T12:56:27;37.07;;;20.33;;
18076;SDS011;9165;45.714;11.362;2022-11-21T12:58:56;33.50;;;19.03;;
18076;SDS011;9165;45.714;11.362;2022-11-21T13:01:26;33.50;;;20.23;;
18076;SDS011;9165;45.714;11.362;2022-11-21T13:03:56;29.57;;;19.00;;
18076;SDS011;9165;45.714;11.362;2022-11-21T13:06:25;29.57;;;18.67;;
18076;SDS011;9165;45.714;11.362;2022-11-21T13:08:54;30.33;;;19.97;;
18076;SDS011;9165;45.714;11.362;2022-11-21T13:11:26;28.43;;;19.03;;
18076;SDS011;9165;45.714;11.362;2022-11-21T13:14:12;30.33;;;19.47;;
18076;SDS011;9165;45.714;11.362;2022-11-21T13:16:41;28.53;;;18.30;;
18076;SDS011;9165;45.714;11.362;2022-11-21T13:19:15;34.03;;;19.33;;
18076;SDS011;9165;45.714;11.362;2022-11-21T13:21:44;28.50;;;19.13;;
18076;SDS011;9165;45.714;11.362;2022-11-21T13:24:13;32.33;;;19.60;;
18076;SDS011;9165;45.714;11.362;2022-11-21T13:27:01;32.10;;;19.70;;
18076;SDS011;9165;45.714;11.362;2022-11-21T13:29:27;28.20;;;18.10;;
18076;SDS011;9165;45.714;11.362;2022-11-21T13:31:54;32.13;;;20.23;;
18076;SDS011;9165;45.714;11.362;2022-11-21T13:34:36;29.77;;;19.17;;
18076;SDS011;9165;45.714;11.362;2022-11-21T13:37:03;26.73;;;18.50;;
18076;SDS011;9165;45.714;11.362;2022-11-21T13:39:34;31.30;;;18.70;;
18076;SDS011;9165;45.714;11.362;2022-11-21T13:42:09;32.10;;;20.60;;
18076;SDS011;9165;45.714;11.362;2022-11-21T13:44:53;31.60;;;21.07;;
18076;SDS011;9165;45.714;11.362;2022-11-21T13:50:13;33.27;;;19.17;;
18076;SDS011;9165;45.714;11.362;2022-11-21T13:52:42;31.50;;;20.37;;
18076;SDS011;9165;45.714;11.362;2022-11-21T13:55:17;33.23;;;20.37;;
18076;SDS011;9165;45.714;11.362;2022-11-21T13:57:53;33.50;;;20.10;;
18076;SDS011;9165;45.714;11.362;2022-11-21T14:00:28;30.03;;;20.93;;
18076;SDS011;9165;45.714;11.362;2022-11-21T14:03:08;34.97;;;22.40;;
18076;SDS011;9165;45.714;11.362;2022-11-21T14:05:52;36.97;;;21.67;;
18076;SDS011;9165;45.714;11.362;2022-11-21T14:08:23;30.27;;;19.97;;
18076;SDS011;9165;45.714;11.362;2022-11-21T14:10:50;36.60;;;21.10;;
18076;SDS011;9165;45.714;11.362;2022-11-21T14:13:21;37.17;;;22.37;;
18076;SDS011;9165;45.714;11.362;2022-11-21T14:15:50;34.03;;;21.53;;
18076;SDS011;9165;45.714;11.362;2022-11-21T14:18:19;32.23;;;20.80;;
18076;SDS011;9165;45.714;11.362;2022-11-21T14:20:48;32.83;;;20.83;;
18076;SDS011;9165;45.714;11.362;2022-11-21T14:23:15;31.03;;;18.50;;
18076;SDS011;9165;45.714;11.362;2022-11-21T14:25:44;28.80;;;19.20;;
18076;SDS011;9165;45.714;11.362;2022-11-21T14:28:15;29.23;;;18.07;;
18076;SDS011;9165;45.714;11.362;2022-11-21T14:30:44;32.37;;;20.77;;
18076;SDS011;9165;45.714;11.362;2022-11-21T14:33:23;33.87;;;21.03;;
18076;SDS011;9165;45.714;11.362;2022-11-21T14:35:50;32.43;;;20.00;;
18076;SDS011;9165;45.714;11.362;2022-11-21T14:38:18;29.90;;;19.53;;
18076;SDS011;9165;45.714;11.362;2022-11-21T14:40:44;33.37;;;20.40;;
18076;SDS011;9165;45.714;11.362;2022-11-21T14:43:22;31.67;;;19.50;;
18076;SDS011;9165;45.714;11.362;2022-11-21T14:45:55;32.43;;;20.10;;
18076;SDS011;9165;45.714;11.362;2022-11-21T14:48:24;35.43;;;19.23;;
18076;SDS011;9165;45.714;11.362;2022-11-21T14:50:50;28.10;;;19.20;;
18076;SDS011;9165;45.714;11.362;2022-11-21T14:53:17;32.17;;;18.47;;
18076;SDS011;9165;45.714;11.362;2022-11-21T14:55:47;35.63;;;19.57;;
18076;SDS011;9165;45.714;11.362;2022-11-21T14:58:14;36.13;;;20.93;;
18076;SDS011;9165;45.714;11.362;2022-11-21T15:00:43;32.77;;;18.87;;
18076;SDS011;9165;45.714;11.362;2022-11-21T15:03:28;29.73;;;18.80;;